createdAt,value
2022-08-17T00:00:44.112Z,19.60
2022-08-17T00:03:17.916Z,19.56
2022-08-17T00:05:52.170Z,19.53
2022-08-17T00:08:23.558Z,19.50
2022-08-17T00:10:53.747Z,19.47
2022-08-17T00:13:26.315Z,19.44
2022-08-17T00:15:59.962Z,19.41
2022-08-17T00:19:06.830Z,19.38
2022-08-17T00:21:25.342Z,19.36
2022-08-17T00:23:55.456Z,19.33
2022-08-17T00:26:44.303Z,19.31
2022-08-17T00:29:19.978Z,19.29
2022-08-17T00:31:50.177Z,19.25
2022-08-17T00:34:19.758Z,19.24
2022-08-17T00:36:50.324Z,19.21
2022-08-17T00:39:19.508Z,19.19
2022-08-17T00:41:48.683Z,19.17
2022-08-17T00:44:17.756Z,19.16
2022-08-17T00:46:47.938Z,19.13
2022-08-17T00:49:19.626Z,19.12
2022-08-17T00:51:54.382Z,19.10
2022-08-17T00:54:28.046Z,19.07
2022-08-17T00:57:00.968Z,19.05
2022-08-17T00:59:38.718Z,19.03
2022-08-17T01:02:10.279Z,19.02
2022-08-17T01:04:39.855Z,19.01
2022-08-17T01:07:11.301Z,18.98
2022-08-17T01:09:41.542Z,18.96
2022-08-17T01:12:12.199Z,18.95
2022-08-17T01:14:42.025Z,18.93
2022-08-17T01:17:11.428Z,18.92
2022-08-17T01:19:42.668Z,18.90
2022-08-17T01:22:21.929Z,18.88
2022-08-17T01:24:53.700Z,18.86
2022-08-17T01:27:23.318Z,18.83
2022-08-17T01:29:58.646Z,18.83
2022-08-17T01:32:30.393Z,18.81
2022-08-17T01:35:00.741Z,18.80
2022-08-17T01:37:34.688Z,18.78
2022-08-17T01:40:07.625Z,18.75
2022-08-17T01:42:41.301Z,18.73
2022-08-17T01:45:13.416Z,18.72
2022-08-17T01:47:42.901Z,18.69
2022-08-17T01:50:16.011Z,18.67
2022-08-17T01:52:49.290Z,18.67
2022-08-17T01:55:27.212Z,18.65
2022-08-17T01:57:58.157Z,18.64
2022-08-17T02:00:51.760Z,18.64
2022-08-17T02:03:18.857Z,18.62
2022-08-17T02:05:48.527Z,18.63
2022-08-17T02:08:20.698Z,18.62
2022-08-17T02:11:11.235Z,18.61
2022-08-17T02:13:40.887Z,18.61
2022-08-17T02:16:10.359Z,18.59
2022-08-17T02:18:39.571Z,18.58
2022-08-17T02:21:09.572Z,18.57
2022-08-17T02:23:43.161Z,18.56
2022-08-17T02:26:25.591Z,18.54
2022-08-17T02:28:56.010Z,18.50
2022-08-17T02:31:24.837Z,18.49
2022-08-17T02:34:03.280Z,18.46
2022-08-17T02:36:35.610Z,18.46
2022-08-17T02:39:07.839Z,18.46
2022-08-17T02:41:37.693Z,18.45
2022-08-17T02:44:07.596Z,18.42
2022-08-17T02:46:37.252Z,18.40
2022-08-17T02:49:06.903Z,18.39
2022-08-17T02:51:36.362Z,18.36
2022-08-17T02:54:40.104Z,18.34
2022-08-17T02:56:56.589Z,18.32
2022-08-17T02:59:25.767Z,18.31
2022-08-17T03:01:54.582Z,18.30
2022-08-17T03:04:24.363Z,18.28
2022-08-17T03:06:53.298Z,18.25
2022-08-17T03:09:23.637Z,18.22
2022-08-17T03:11:53.161Z,18.20
2022-08-17T03:14:26.088Z,18.19
2022-08-17T03:16:55.669Z,18.18
2022-08-17T03:19:24.614Z,18.16
2022-08-17T03:21:55.359Z,18.15
2022-08-17T03:24:28.729Z,18.13
2022-08-17T03:26:58.177Z,18.13
2022-08-17T03:29:27.439Z,18.11
2022-08-17T03:31:56.441Z,18.10
2022-08-17T03:34:25.198Z,18.09
2022-08-17T03:36:54.561Z,18.08
2022-08-17T03:39:25.266Z,18.07
2022-08-17T03:41:54.372Z,18.05
2022-08-17T03:44:23.361Z,18.05
2022-08-17T03:47:09.831Z,18.04
2022-08-17T03:49:56.322Z,18.03
2022-08-17T03:52:42.905Z,18.01
2022-08-17T03:55:35.810Z,18.01
2022-08-17T03:58:05.729Z,17.99
2022-08-17T04:00:39.767Z,18.00
2022-08-17T04:03:09.148Z,18.01
2022-08-17T04:05:38.447Z,18.01
2022-08-17T04:08:09.856Z,18.03
2022-08-17T04:10:44.994Z,18.03
2022-08-17T04:13:14.921Z,18.02
2022-08-17T04:15:53.470Z,18.03
2022-08-17T04:18:22.220Z,18.04
2022-08-17T04:20:51.268Z,18.06
2022-08-17T04:23:20.925Z,18.06
2022-08-17T04:25:53.288Z,18.05
2022-08-17T04:28:22.630Z,18.07
2022-08-17T04:30:51.949Z,18.08
2022-08-17T04:33:24.123Z,18.09
2022-08-17T04:35:56.023Z,18.11
2022-08-17T04:38:27.203Z,18.13
2022-08-17T04:41:15.723Z,18.16
2022-08-17T04:43:46.488Z,18.18
2022-08-17T04:46:17.626Z,18.23
2022-08-17T04:48:49.152Z,18.28
2022-08-17T04:51:21.058Z,18.31
2022-08-17T04:53:54.138Z,18.37
2022-08-17T04:56:27.211Z,18.42
2022-08-17T04:58:59.465Z,18.48
2022-08-17T05:01:33.121Z,18.52
2022-08-17T05:04:33.518Z,18.56
2022-08-17T05:06:56.155Z,18.61
2022-08-17T05:09:25.262Z,18.64
2022-08-17T05:11:56.379Z,18.68
2022-08-17T05:14:32.900Z,18.72
2022-08-17T05:17:09.412Z,18.76
2022-08-17T05:19:41.274Z,18.81
2022-08-17T05:22:10.506Z,18.85
2022-08-17T05:24:43.582Z,18.88
2022-08-17T05:27:23.978Z,18.91
2022-08-17T05:29:54.515Z,18.93
2022-08-17T05:32:38.804Z,18.97
2022-08-17T05:35:10.189Z,19.01
2022-08-17T05:37:39.467Z,19.04
2022-08-17T05:40:10.139Z,19.07
2022-08-17T05:42:40.800Z,19.10
2022-08-17T05:45:11.996Z,19.14
2022-08-17T05:47:42.060Z,19.16
2022-08-17T05:50:18.053Z,19.20
2022-08-17T05:52:57.186Z,19.25
2022-08-17T05:55:36.042Z,19.31
2022-08-17T05:58:21.301Z,19.36
2022-08-17T06:00:58.911Z,19.40
2022-08-17T06:03:43.926Z,19.47
2022-08-17T06:06:31.845Z,19.52
2022-08-17T06:09:27.595Z,19.56
2022-08-17T06:12:04.508Z,19.62
2022-08-17T06:14:54.700Z,19.70
2022-08-17T06:17:28.094Z,19.78
2022-08-17T06:20:00.303Z,19.87
2022-08-17T06:22:34.548Z,19.97
2022-08-17T06:25:10.326Z,20.10
2022-08-17T06:27:45.063Z,20.25
2022-08-17T06:30:18.965Z,20.39
2022-08-17T06:32:51.163Z,20.53
2022-08-17T06:35:34.065Z,20.68
2022-08-17T06:38:33.944Z,20.86
2022-08-17T06:41:15.637Z,21.03
2022-08-17T06:44:06.912Z,21.20
2022-08-17T06:46:40.509Z,21.36
2022-08-17T06:49:26.733Z,21.50
2022-08-17T06:52:02.349Z,21.65
2022-08-17T06:54:40.009Z,21.79
2022-08-17T06:57:18.916Z,21.93
2022-08-17T06:59:55.456Z,22.08
2022-08-17T07:03:02.792Z,22.21
2022-08-17T07:05:33.944Z,22.35
2022-08-17T07:08:09.339Z,22.51
2022-08-17T07:10:43.803Z,22.63
2022-08-17T07:13:29.554Z,22.76
2022-08-17T07:16:13.231Z,22.88
2022-08-17T07:18:44.154Z,22.99
2022-08-17T07:21:27.187Z,23.11
2022-08-17T07:28:20.805Z,23.39
2022-08-17T07:31:08.393Z,23.52
2022-08-17T07:33:39.736Z,23.62
2022-08-17T07:36:29.784Z,23.72
2022-08-17T07:38:59.837Z,23.82
2022-08-17T07:41:53.159Z,23.90
2022-08-17T07:44:19.931Z,24.01
2022-08-17T07:47:12.094Z,24.11
2022-08-17T07:49:44.752Z,24.19
2022-08-17T07:52:47.931Z,24.31
2022-08-17T07:55:30.686Z,24.39
2022-08-17T07:58:00.965Z,24.50
2022-08-17T08:00:31.974Z,24.60
2022-08-17T08:03:13.351Z,24.71
2022-08-17T08:05:53.110Z,24.83
2022-08-17T08:08:29.622Z,24.93
2022-08-17T08:11:29.188Z,25.03
2022-08-17T08:14:17.676Z,25.12
2022-08-17T08:16:59.089Z,25.22
2022-08-17T08:19:31.399Z,25.29
2022-08-17T08:22:06.862Z,25.37
2022-08-17T08:24:55.483Z,25.45
2022-08-17T08:27:38.604Z,25.51
2022-08-17T08:30:14.191Z,25.60
2022-08-17T08:32:57.229Z,25.66
2022-08-17T08:35:32.852Z,25.74
2022-08-17T08:38:11.926Z,25.81
2022-08-17T08:40:54.135Z,25.89
2022-08-17T08:43:36.253Z,25.96
2022-08-17T08:46:19.682Z,26.04
2022-08-17T08:50:02.038Z,26.12
2022-08-17T08:52:43.551Z,26.20
2022-08-17T08:55:20.168Z,26.27
2022-08-17T08:57:53.598Z,26.36
2022-08-17T09:00:25.968Z,26.42
2022-08-17T09:03:51.222Z,26.48
2022-08-17T09:06:39.000Z,26.58
2022-08-17T09:09:24.680Z,26.62
2022-08-17T09:12:05.793Z,26.69
2022-08-17T09:14:45.048Z,26.73
2022-08-17T09:17:20.293Z,26.78
2022-08-17T09:19:55.681Z,26.84
2022-08-17T09:22:35.230Z,26.89
2022-08-17T09:25:11.219Z,26.93
2022-08-17T09:27:52.079Z,26.98
2022-08-17T09:30:23.819Z,27.01
2022-08-17T09:32:57.543Z,27.04
2022-08-17T09:35:37.103Z,27.10
2022-08-17T09:38:17.213Z,27.14
2022-08-17T09:40:52.994Z,27.19
2022-08-17T09:43:32.643Z,27.23
2022-08-17T09:46:09.019Z,27.28
2022-08-17T09:48:42.920Z,27.33
2022-08-17T09:51:17.100Z,27.36
2022-08-17T09:53:46.442Z,27.40
2022-08-17T09:56:48.262Z,27.45
2022-08-17T09:59:38.525Z,27.50
2022-08-17T10:02:36.100Z,27.53
2022-08-17T10:05:08.859Z,27.57
2022-08-17T10:07:44.774Z,27.62
2022-08-17T10:10:20.513Z,27.66
2022-08-17T10:12:57.952Z,27.71
2022-08-17T10:15:38.078Z,27.74
2022-08-17T10:18:31.922Z,27.80
2022-08-17T10:21:24.282Z,27.84
2022-08-17T10:24:18.648Z,27.90
2022-08-17T10:26:56.713Z,27.94
2022-08-17T10:29:47.292Z,27.96
2022-08-17T10:32:28.245Z,28.01
2022-08-17T10:35:16.686Z,28.03
2022-08-17T10:38:07.542Z,28.07
2022-08-17T10:40:46.397Z,28.09
2022-08-17T10:43:29.297Z,28.13
2022-08-17T10:46:30.495Z,28.14
2022-08-17T10:49:15.266Z,28.17
2022-08-17T10:51:45.961Z,28.20
2022-08-17T10:54:50.714Z,28.24
2022-08-17T10:57:43.150Z,28.29
2022-08-17T11:00:32.281Z,28.33
2022-08-17T11:03:03.388Z,28.36
2022-08-17T11:05:50.358Z,28.42
2022-08-17T11:08:38.788Z,28.46
2022-08-17T11:11:35.910Z,28.50
2022-08-17T11:14:23.974Z,28.56
2022-08-17T11:17:02.018Z,28.58
2022-08-17T11:19:58.148Z,28.62
2022-08-17T11:22:50.734Z,28.65
2022-08-17T11:25:23.025Z,28.69
2022-08-17T11:28:06.335Z,28.72
2022-08-17T11:30:50.764Z,28.76
2022-08-17T11:33:59.212Z,28.80
2022-08-17T11:36:40.029Z,28.81
2022-08-17T11:39:43.802Z,28.85
2022-08-17T11:42:28.359Z,28.89
2022-08-17T11:44:59.745Z,28.93
2022-08-17T11:48:23.572Z,28.96
2022-08-17T11:51:12.671Z,28.99
2022-08-17T11:54:34.791Z,29.01
2022-08-17T11:57:43.065Z,29.05
2022-08-17T12:00:57.780Z,29.06
2022-08-17T12:03:54.166Z,29.09
2022-08-17T12:06:45.954Z,29.11
2022-08-17T12:09:20.964Z,29.13
2022-08-17T12:12:12.361Z,29.17
2022-08-17T12:17:42.889Z,29.26
2022-08-17T12:20:17.242Z,29.30
2022-08-17T12:22:57.650Z,29.33
2022-08-17T12:25:37.211Z,29.35
2022-08-17T12:28:20.157Z,29.36
2022-08-17T12:30:52.332Z,29.37
2022-08-17T12:33:25.519Z,29.39
2022-08-17T12:36:03.042Z,29.42
2022-08-17T12:38:34.818Z,29.45
2022-08-17T12:41:23.142Z,29.48
2022-08-17T12:44:02.189Z,29.52
2022-08-17T12:46:45.762Z,29.55
2022-08-17T12:49:18.165Z,29.58
2022-08-17T12:51:48.977Z,29.61
2022-08-17T12:54:29.130Z,29.63
2022-08-17T12:57:06.098Z,29.65
2022-08-17T12:59:35.518Z,29.67
2022-08-17T13:02:05.694Z,29.71
2022-08-17T13:04:34.878Z,29.75
2022-08-17T13:07:03.988Z,29.78
2022-08-17T13:09:36.070Z,29.81
2022-08-17T13:12:11.285Z,29.84
2022-08-17T13:14:47.018Z,29.89
2022-08-17T13:17:28.600Z,29.93
2022-08-17T13:19:58.465Z,29.96
2022-08-17T13:22:30.551Z,30.00
2022-08-17T13:25:04.093Z,30.04
2022-08-17T13:27:38.351Z,30.09
2022-08-17T13:30:13.033Z,30.12
2022-08-17T13:32:47.234Z,30.13
2022-08-17T13:35:41.030Z,30.15
2022-08-17T13:38:13.647Z,30.18
2022-08-17T13:40:49.302Z,30.21
2022-08-17T13:43:45.756Z,30.29
2022-08-17T13:46:22.201Z,30.42
2022-08-17T13:49:01.836Z,30.67
2022-08-17T13:51:35.300Z,31.05
2022-08-17T13:54:26.758Z,31.58
2022-08-17T13:57:08.042Z,32.25
2022-08-17T13:59:54.945Z,32.90
2022-08-17T14:02:28.552Z,33.56
2022-08-17T14:05:00.565Z,34.18
2022-08-17T14:07:37.325Z,34.82
2022-08-17T14:10:12.757Z,35.43
2022-08-17T14:12:45.693Z,35.95
2022-08-17T14:15:20.551Z,36.53
2022-08-17T14:17:50.336Z,37.03
2022-08-17T14:20:21.602Z,37.49
2022-08-17T14:22:53.491Z,37.96
2022-08-17T14:25:30.263Z,38.41
2022-08-17T14:28:00.068Z,38.84
2022-08-17T14:30:32.319Z,39.27
2022-08-17T14:33:02.266Z,39.67
2022-08-17T14:35:31.522Z,40.04
2022-08-17T14:38:02.191Z,40.36
2022-08-17T14:40:33.472Z,40.70
2022-08-17T14:43:02.691Z,40.98
2022-08-17T14:45:33.684Z,41.22
2022-08-17T14:48:07.592Z,41.50
2022-08-17T14:50:40.689Z,41.72
2022-08-17T14:53:12.462Z,41.94
2022-08-17T14:55:41.589Z,42.12
2022-08-17T14:58:11.262Z,42.22
2022-08-17T15:00:43.641Z,42.34
2022-08-17T15:03:14.530Z,42.47
2022-08-17T15:05:44.316Z,42.59
2022-08-17T15:08:13.946Z,42.69
2022-08-17T15:10:44.817Z,42.81
2022-08-17T15:13:20.744Z,42.91
2022-08-17T15:15:52.570Z,43.03
2022-08-17T15:18:21.833Z,43.14
2022-08-17T15:20:52.805Z,43.23
2022-08-17T15:23:26.225Z,43.27
2022-08-17T15:25:56.370Z,43.29
2022-08-17T15:28:25.589Z,43.27
2022-08-17T15:30:56.253Z,43.24
2022-08-17T15:33:30.284Z,43.19
2022-08-17T15:36:01.443Z,43.18
2022-08-17T15:38:34.160Z,43.19
2022-08-17T15:41:04.304Z,43.24
2022-08-17T15:43:34.744Z,43.31
2022-08-17T15:46:10.514Z,43.35
2022-08-17T15:48:44.634Z,43.37
2022-08-17T15:51:17.832Z,43.41
2022-08-17T15:53:50.327Z,43.43
2022-08-17T15:56:20.121Z,43.43
2022-08-17T15:58:50.596Z,43.38
2022-08-17T16:03:01.249Z,43.37
2022-08-17T16:04:26.667Z,43.37
2022-08-17T16:07:00.022Z,43.33
2022-08-17T16:09:29.656Z,43.29
2022-08-17T16:11:58.961Z,43.20
2022-08-17T16:14:32.392Z,43.12
2022-08-17T16:17:38.935Z,42.92
2022-08-17T16:19:57.112Z,42.68
2022-08-17T16:22:33.597Z,42.41
2022-08-17T16:25:07.542Z,42.09
2022-08-17T16:27:37.054Z,41.71
2022-08-17T16:30:12.508Z,41.29
2022-08-17T16:32:49.314Z,40.83
2022-08-17T16:35:20.523Z,40.41
2022-08-17T16:37:51.306Z,39.99
2022-08-17T16:40:21.061Z,39.56
2022-08-17T16:42:51.514Z,39.16
2022-08-17T16:45:26.022Z,38.73
2022-08-17T16:48:01.555Z,38.36
2022-08-17T16:50:32.068Z,37.93
2022-08-17T16:53:06.644Z,37.55
2022-08-17T16:55:36.779Z,37.20
2022-08-17T16:58:08.844Z,36.85
2022-08-17T17:00:39.341Z,36.49
2022-08-17T17:03:19.393Z,36.18
2022-08-17T17:06:08.322Z,35.84
2022-08-17T17:08:44.611Z,35.52
2022-08-17T17:11:19.381Z,35.20
2022-08-17T17:13:54.744Z,34.93
2022-08-17T17:16:33.133Z,34.65
2022-08-17T17:19:11.993Z,34.36
2022-08-17T17:21:48.926Z,34.10
2022-08-17T17:24:28.817Z,33.86
2022-08-17T17:27:13.654Z,33.61
2022-08-17T17:29:56.625Z,33.36
2022-08-17T17:32:37.965Z,33.13
2022-08-17T17:35:16.476Z,32.90
2022-08-17T17:37:47.978Z,32.69
2022-08-17T17:40:23.139Z,32.48
2022-08-17T17:42:55.831Z,32.28
2022-08-17T17:45:31.391Z,32.09
2022-08-17T17:48:00.965Z,31.92
2022-08-17T17:50:38.137Z,31.75
2022-08-17T17:53:11.362Z,31.58
2022-08-17T17:56:01.002Z,31.41
2022-08-17T17:58:42.856Z,31.23
2022-08-17T18:01:26.885Z,31.06
2022-08-17T18:04:20.615Z,30.89
2022-08-17T18:07:17.923Z,30.69
2022-08-17T18:10:04.114Z,30.53
2022-08-17T18:12:41.717Z,30.38
2022-08-17T18:15:31.478Z,30.22
2022-08-17T18:18:06.718Z,30.07
2022-08-17T18:20:46.610Z,29.93
2022-08-17T18:23:28.627Z,29.78
2022-08-17T18:25:59.497Z,29.64
2022-08-17T18:28:32.955Z,29.51
2022-08-17T18:31:09.581Z,29.37
2022-08-17T18:33:43.321Z,29.24
2022-08-17T18:36:13.183Z,29.11
2022-08-17T18:38:45.437Z,28.98
2022-08-17T18:41:30.600Z,28.84
2022-08-17T18:44:03.015Z,28.72
2022-08-17T18:46:35.437Z,28.60
2022-08-17T18:49:10.564Z,28.48
2022-08-17T18:51:43.181Z,28.37
2022-08-17T18:54:22.738Z,28.24
2022-08-17T18:56:57.372Z,28.14
2022-08-17T18:59:36.362Z,28.03
2022-08-17T19:02:44.691Z,27.91
2022-08-17T19:05:29.725Z,27.80
2022-08-17T19:08:19.726Z,27.68
2022-08-17T19:10:53.814Z,27.59
2022-08-17T19:13:29.660Z,27.46
2022-08-17T19:16:14.010Z,27.28
2022-08-17T19:18:49.913Z,27.09
2022-08-17T19:21:24.945Z,26.93
2022-08-17T19:24:00.394Z,26.80
2022-08-17T19:26:53.954Z,26.68
2022-08-17T19:29:31.054Z,26.58
2022-08-17T19:32:01.221Z,26.50
2022-08-17T19:34:34.475Z,26.42
2022-08-17T19:37:10.928Z,26.34
2022-08-17T19:39:51.123Z,26.26
2022-08-17T19:42:42.502Z,26.17
2022-08-17T19:45:20.809Z,26.11
2022-08-17T19:47:55.539Z,26.06
2022-08-17T19:50:38.531Z,25.97
2022-08-17T19:53:18.553Z,25.87
2022-08-17T19:55:55.142Z,25.73
2022-08-17T19:58:41.258Z,25.61
2022-08-17T20:01:20.707Z,25.49
2022-08-17T20:03:59.322Z,25.34
2022-08-17T20:06:34.307Z,25.21
2022-08-17T20:09:14.926Z,25.09
2022-08-17T20:11:49.494Z,24.96
2022-08-17T20:14:23.136Z,24.81
2022-08-17T20:16:52.661Z,24.68
2022-08-17T20:19:43.341Z,24.57
2022-08-17T20:22:18.778Z,24.46
2022-08-17T20:24:55.528Z,24.37
2022-08-17T20:27:31.678Z,24.30
2022-08-17T20:30:10.534Z,24.22
2022-08-17T20:32:55.479Z,24.15
2022-08-17T20:35:28.967Z,24.10
2022-08-17T20:38:02.223Z,24.05
2022-08-17T20:40:35.279Z,24.01
2022-08-17T20:43:51.248Z,23.94
2022-08-17T20:46:46.318Z,23.83
2022-08-17T20:49:23.984Z,23.75
2022-08-17T20:52:01.529Z,23.67
2022-08-17T20:54:48.307Z,23.61
2022-08-17T20:57:48.874Z,23.53
2022-08-17T21:00:47.181Z,23.44
2022-08-17T21:03:50.812Z,23.38
2022-08-17T21:06:26.146Z,23.31
2022-08-17T21:08:59.148Z,23.23
2022-08-17T21:12:04.423Z,23.14
2022-08-17T21:14:58.097Z,23.08
2022-08-17T21:17:50.189Z,22.98
2022-08-17T21:20:33.398Z,22.89
2022-08-17T21:23:23.333Z,22.81
2022-08-17T21:26:23.633Z,22.76
2022-08-17T21:29:30.014Z,22.71
2022-08-17T21:32:24.148Z,22.61
2022-08-17T21:35:25.165Z,22.52
2022-08-17T21:38:04.419Z,22.45
2022-08-17T21:40:35.099Z,22.40
2022-08-17T21:43:22.859Z,22.33
2022-08-17T21:46:04.423Z,22.28
2022-08-17T21:48:43.285Z,22.26
2022-08-17T21:51:18.724Z,22.23
2022-08-17T21:53:51.680Z,22.19
2022-08-17T21:56:28.480Z,22.19
2022-08-17T21:59:02.933Z,22.16
2022-08-17T22:01:35.930Z,22.13
2022-08-17T22:04:19.005Z,22.08
2022-08-17T22:06:57.308Z,22.04
2022-08-17T22:09:31.561Z,22.00
2022-08-17T22:12:05.759Z,21.97
2022-08-17T22:14:52.936Z,21.93
2022-08-17T22:17:26.169Z,21.91
2022-08-17T22:19:59.018Z,21.90
2022-08-17T22:22:56.040Z,21.87
2022-08-17T22:25:27.727Z,21.83
2022-08-17T22:28:00.297Z,21.79
2022-08-17T22:30:40.160Z,21.74
2022-08-17T22:33:41.592Z,21.69
2022-08-17T22:36:30.172Z,21.65
2022-08-17T22:39:01.619Z,21.62
2022-08-17T22:41:39.179Z,21.59
2022-08-17T22:44:17.639Z,21.55
2022-08-17T22:46:59.047Z,21.52
2022-08-17T22:49:32.918Z,21.49
2022-08-17T22:52:09.624Z,21.46
2022-08-17T22:54:56.223Z,21.43
2022-08-17T22:57:45.145Z,21.40
2022-08-17T23:00:35.617Z,21.37
2022-08-17T23:03:15.401Z,21.34
2022-08-17T23:05:47.474Z,21.30
2022-08-17T23:08:21.440Z,21.28
2022-08-17T23:10:50.933Z,21.26
2022-08-17T23:13:21.769Z,21.22
2022-08-17T23:15:52.335Z,21.19
2022-08-17T23:18:23.550Z,21.15
2022-08-17T23:20:52.775Z,21.12
2022-08-17T23:23:23.998Z,21.09
2022-08-17T23:25:54.461Z,21.06
2022-08-17T23:28:25.227Z,21.02
2022-08-17T23:30:54.413Z,21.00
2022-08-17T23:33:30.069Z,20.98
2022-08-17T23:35:59.788Z,20.96
2022-08-17T23:38:29.240Z,20.94
2022-08-17T23:41:01.595Z,20.91
2022-08-17T23:43:32.769Z,20.91
2022-08-17T23:46:04.028Z,20.87
2022-08-17T23:48:35.789Z,20.84
2022-08-17T23:51:10.619Z,20.82
2022-08-17T23:53:44.184Z,20.79
2022-08-17T23:56:13.429Z,20.78
2022-08-17T23:58:45.169Z,20.76
